Time;durP1;ratioP1;P1;durP2;ratioP2;P2;SDS_P1;SDS_P2;PMS_P1;PMS_P2;Temp;Humidity;BMP_temperature;BMP_pressure;BME280_temperature;BME280_humidity;BME280_pressure;Samples;Min_cycle;Max_cycle;Signal;HPM_P1;HPM_P2
2022/06/09 00:01:45;;;;;;;5.90;1.40;;;;;;;;;;5034411;28;20385;-83
2022/06/09 00:04:15;;;;;;;8.68;1.63;;;;;;;;;;5031059;28;20091;-83
2022/06/09 00:06:54;;;;;;;9.38;1.90;;;;;;;;;;5032046;28;20060;-81
2022/06/09 00:09:22;;;;;;;8.93;1.80;;;;;;;;;;5033998;28;20391;-82
2022/06/09 00:11:49;;;;;;;6.75;1.58;;;;;;;;;;5032986;28;20021;-83
2022/06/09 00:14:16;;;;;;;11.57;1.58;;;;;;;;;;5036499;28;20033;-80
2022/06/09 00:16:43;;;;;;;8.98;1.52;;;;;;;;;;5034024;28;20404;-82
2022/06/09 00:19:09;;;;;;;9.82;1.42;;;;;;;;;;5033153;28;20032;-81
2022/06/09 00:21:35;;;;;;;9.40;1.60;;;;;;;;;;5031118;28;20041;-82
2022/06/09 00:24:01;;;;;;;9.60;1.33;;;;;;;;;;4993508;28;1205583;-81
2022/06/09 00:26:28;;;;;;;8.50;1.40;;;;;;;;;;5038089;28;20038;-81
2022/06/09 00:28:54;;;;;;;10.20;1.90;;;;;;;;;;5034415;28;20034;-81
2022/06/09 00:31:20;;;;;;;9.55;1.88;;;;;;;;;;5036743;28;20088;-84
2022/06/09 00:33:45;;;;;;;9.00;1.48;;;;;;;;;;5034306;28;20040;-82
2022/06/09 00:36:11;;;;;;;8.38;1.40;;;;;;;;;;5037144;28;20120;-81
2022/06/09 00:38:36;;;;;;;10.15;1.73;;;;;;;;;;5037021;28;20257;-82
2022/06/09 00:41:02;;;;;;;7.82;1.30;;;;;;;;;;5032581;28;20056;-82
2022/06/09 00:43:29;;;;;;;11.27;1.83;;;;;;;;;;5032666;28;20030;-82
2022/06/09 00:46:10;;;;;;;8.35;1.50;;;;;;;;;;5041766;28;20029;-83
2022/06/09 00:48:49;;;;;;;8.27;1.35;;;;;;;;;;5043333;28;20025;-84
2022/06/09 00:51:22;;;;;;;6.47;1.40;;;;;;;;;;5042523;28;20037;-82
2022/06/09 00:53:51;;;;;;;10.07;1.42;;;;;;;;;;5043061;28;20033;-83
2022/06/09 00:56:17;;;;;;;11.98;2.00;;;;;;;;;;5042554;28;20034;-82
2022/06/09 00:58:47;;;;;;;5.95;1.25;;;;;;;;;;5041941;28;20092;-83
2022/06/09 01:01:15;;;;;;;8.70;1.55;;;;;;;;;;5041952;28;20017;-83
2022/06/09 01:03:51;;;;;;;6.85;1.35;;;;;;;;;;5043014;28;20031;-83
2022/06/09 01:06:21;;;;;;;8.45;1.58;;;;;;;;;;5042656;28;20048;-83
2022/06/09 01:08:59;;;;;;;9.20;1.58;;;;;;;;;;5042939;28;20021;-82
2022/06/09 01:11:25;;;;;;;5.88;1.55;;;;;;;;;;5035754;28;20026;-81
2022/06/09 01:13:52;;;;;;;8.00;1.45;;;;;;;;;;5031398;28;20079;-82
2022/06/09 01:16:39;;;;;;;9.45;2.00;;;;;;;;;;5032485;28;20064;-84
2022/06/09 01:19:37;;;;;;;8.98;1.50;;;;;;;;;;5030112;28;20421;-83
2022/06/09 01:22:11;;;;;;;9.10;1.80;;;;;;;;;;5031893;28;20021;-82
2022/06/09 01:24:52;;;;;;;11.98;1.88;;;;;;;;;;5032452;28;20049;-81
2022/06/09 01:27:32;;;;;;;;;;;;;;;;;;5032524;28;20053;-82
2022/06/09 01:30:12;;;;;;;9.13;1.90;;;;;;;;;;5031481;28;19910;-82
2022/06/09 01:33:01;;;;;;;9.55;2.00;;;;;;;;;;5032578;28;20267;-83
2022/06/09 01:35:35;;;;;;;12.13;1.77;;;;;;;;;;5031264;28;20041;-81
2022/06/09 01:38:00;;;;;;;9.52;1.60;;;;;;;;;;5032518;28;20432;-82
2022/06/09 01:40:26;;;;;;;13.48;1.90;;;;;;;;;;5033147;28;20108;-82
2022/06/09 01:42:55;;;;;;;10.15;1.70;;;;;;;;;;5032856;28;20224;-83
2022/06/09 01:45:22;;;;;;;8.80;1.55;;;;;;;;;;5031078;28;20035;-82
2022/06/09 01:47:47;;;;;;;10.25;1.80;;;;;;;;;;5031899;28;20025;-82
2022/06/09 01:50:22;;;;;;;11.50;1.83;;;;;;;;;;5031958;28;20372;-83
2022/06/09 01:52:48;;;;;;;8.18;1.70;;;;;;;;;;5031716;28;20018;-82
2022/06/09 01:55:18;;;;;;;7.75;1.90;;;;;;;;;;5031280;28;20026;-82
2022/06/09 01:57:46;;;;;;;14.82;1.70;;;;;;;;;;5031406;28;20100;-83
2022/06/09 02:00:15;;;;;;;12.05;2.08;;;;;;;;;;5030841;28;20056;-83
2022/06/09 02:02:47;;;;;;;13.15;1.90;;;;;;;;;;5030810;28;20025;-82
2022/06/09 02:05:25;;;;;;;11.30;2.15;;;;;;;;;;5030739;28;20029;-83
2022/06/09 02:07:55;;;;;;;12.18;1.92;;;;;;;;;;5030437;28;20428;-81
2022/06/09 02:10:36;;;;;;;12.60;1.98;;;;;;;;;;5030723;28;20420;-83
2022/06/09 02:13:09;;;;;;;12.70;2.10;;;;;;;;;;5029286;28;20083;-83
2022/06/09 02:15:46;;;;;;;11.63;2.00;;;;;;;;;;5030717;28;20029;-82
2022/06/09 02:18:18;;;;;;;12.32;2.42;;;;;;;;;;5030669;28;20056;-84
2022/06/09 02:20:54;;;;;;;10.80;1.80;;;;;;;;;;5030434;28;20028;-84
2022/06/09 02:23:19;;;;;;;14.10;1.83;;;;;;;;;;5030158;28;20076;-83
2022/06/09 02:25:44;;;;;;;11.60;2.03;;;;;;;;;;5028990;28;20493;-82
2022/06/09 02:28:10;;;;;;;10.45;1.77;;;;;;;;;;5030614;28;20099;-81
2022/06/09 02:30:37;;;;;;;9.10;1.85;;;;;;;;;;5030495;28;20537;-83
2022/06/09 02:33:03;;;;;;;14.07;2.10;;;;;;;;;;5030063;28;20520;-84
2022/06/09 02:35:29;;;;;;;15.10;2.13;;;;;;;;;;5030372;28;20037;-84
2022/06/09 02:37:54;;;;;;;10.85;1.63;;;;;;;;;;5030172;28;20362;-84
2022/06/09 02:40:20;;;;;;;8.88;1.90;;;;;;;;;;5030197;28;20041;-82
2022/06/09 02:42:45;;;;;;;13.05;1.77;;;;;;;;;;5032893;28;20022;-82
2022/06/09 02:45:14;;;;;;;12.55;1.95;;;;;;;;;;5030780;28;20034;-83
2022/06/09 02:47:39;;;;;;;11.45;2.10;;;;;;;;;;5030432;28;20021;-81
2022/06/09 02:50:06;;;;;;;12.50;1.90;;;;;;;;;;5030261;28;20026;-83
2022/06/09 02:52:32;;;;;;;9.35;1.95;;;;;;;;;;5029714;28;20037;-82
2022/06/09 02:54:58;;;;;;;15.68;2.10;;;;;;;;;;5030073;28;20121;-83
2022/06/09 02:57:23;;;;;;;12.60;2.08;;;;;;;;;;5029910;28;20061;-83
2022/06/09 02:59:51;;;;;;;12.60;2.25;;;;;;;;;;5029898;28;20076;-81
2022/06/09 03:02:17;;;;;;;8.70;1.60;;;;;;;;;;5029602;28;20033;-82
2022/06/09 03:04:42;;;;;;;12.93;2.10;;;;;;;;;;5012126;28;20037;-82
2022/06/09 03:07:07;;;;;;;12.80;2.17;;;;;;;;;;5029895;28;20025;-83
2022/06/09 03:09:33;;;;;;;11.20;2.20;;;;;;;;;;5030417;28;20051;-84
2022/06/09 03:11:59;;;;;;;13.35;1.75;;;;;;;;;;5030225;28;20068;-83
2022/06/09 03:14:25;;;;;;;15.38;2.08;;;;;;;;;;5029842;28;20026;-82
2022/06/09 03:16:50;;;;;;;8.38;1.65;;;;;;;;;;5029634;28;20087;-82
2022/06/09 03:19:17;;;;;;;8.82;1.55;;;;;;;;;;5029660;28;20033;-81
2022/06/09 03:21:43;;;;;;;13.45;1.98;;;;;;;;;;5032589;28;20021;-82
2022/06/09 03:24:08;;;;;;;8.60;1.83;;;;;;;;;;5033292;28;20056;-82
2022/06/09 03:26:34;;;;;;;14.05;2.13;;;;;;;;;;5035854;28;20036;-83
2022/06/09 03:28:59;;;;;;;9.73;1.75;;;;;;;;;;5036137;28;20080;-82
2022/06/09 03:31:25;;;;;;;11.95;2.03;;;;;;;;;;5035664;28;20060;-82
2022/06/09 03:33:50;;;;;;;12.38;2.10;;;;;;;;;;5033853;28;20041;-84
2022/06/09 03:36:16;;;;;;;10.57;2.05;;;;;;;;;;5033835;28;20087;-83
2022/06/09 03:38:42;;;;;;;14.65;1.80;;;;;;;;;;5033550;28;20028;-84
2022/06/09 03:41:08;;;;;;;10.68;1.52;;;;;;;;;;5034422;28;20104;-82
2022/06/09 03:43:34;;;;;;;12.38;1.90;;;;;;;;;;5033622;28;20118;-82
2022/06/09 03:46:00;;;;;;;11.63;1.80;;;;;;;;;;5033209;28;20679;-82
2022/06/09 03:48:27;;;;;;;12.75;2.00;;;;;;;;;;5033215;28;20136;-82
2022/06/09 03:50:52;;;;;;;14.38;2.25;;;;;;;;;;5032754;28;20100;-83
2022/06/09 03:53:18;;;;;;;13.55;2.20;;;;;;;;;;5033298;28;20104;-84
2022/06/09 03:55:43;;;;;;;9.77;1.85;;;;;;;;;;5031900;28;20037;-83
2022/06/09 03:58:09;;;;;;;10.48;1.80;;;;;;;;;;5032777;28;20076;-82
2022/06/09 04:00:35;;;;;;;16.45;2.17;;;;;;;;;;5033008;28;20028;-82
2022/06/09 04:03:01;;;;;;;14.52;2.10;;;;;;;;;;5032736;28;20036;-82
2022/06/09 04:05:27;;;;;;;10.38;1.80;;;;;;;;;;5032811;28;20021;-82
2022/06/09 04:07:53;;;;;;;11.43;1.88;;;;;;;;;;5034392;28;20044;-82
2022/06/09 04:10:27;;;;;;;9.57;1.75;;;;;;;;;;5032632;28;20030;-82
2022/06/09 04:12:53;;;;;;;14.15;2.22;;;;;;;;;;5033095;28;20029;-82
2022/06/09 04:15:19;;;;;;;13.90;2.10;;;;;;;;;;5033498;28;20079;-82
2022/06/09 04:17:45;;;;;;;14.23;2.00;;;;;;;;;;5032760;28;20147;-81
2022/06/09 04:20:13;;;;;;;15.55;1.88;;;;;;;;;;5032504;28;20036;-81
2022/06/09 04:22:38;;;;;;;13.75;2.40;;;;;;;;;;5032266;28;20100;-83
2022/06/09 04:25:05;;;;;;;15.70;2.20;;;;;;;;;;5032996;28;20107;-82
2022/06/09 04:27:31;;;;;;;10.75;1.92;;;;;;;;;;5030816;28;20032;-83
2022/06/09 04:29:57;;;;;;;13.30;1.90;;;;;;;;;;5032341;28;20025;-82
2022/06/09 04:32:23;;;;;;;15.52;1.90;;;;;;;;;;5032534;28;20025;-82
2022/06/09 04:34:49;;;;;;;17.17;2.58;;;;;;;;;;5031979;28;20021;-82
2022/06/09 04:37:14;;;;;;;15.40;2.13;;;;;;;;;;5031203;28;20055;-82
2022/06/09 04:39:41;;;;;;;15.25;2.30;;;;;;;;;;5032312;28;20033;-82
2022/06/09 04:42:07;;;;;;;14.18;2.28;;;;;;;;;;5032278;28;20022;-82
2022/06/09 04:44:32;;;;;;;11.98;1.88;;;;;;;;;;5031737;28;20028;-82
2022/06/09 04:46:58;;;;;;;11.45;1.88;;;;;;;;;;5031994;28;20017;-84
2022/06/09 04:49:23;;;;;;;18.60;2.17;;;;;;;;;;5032177;28;20020;-83
2022/06/09 04:51:49;;;;;;;11.55;2.17;;;;;;;;;;5031864;28;20555;-83
2022/06/09 04:54:14;;;;;;;14.95;2.05;;;;;;;;;;5032197;28;20022;-81
2022/06/09 04:56:39;;;;;;;12.45;2.00;;;;;;;;;;5031733;28;20432;-82
2022/06/09 04:59:05;;;;;;;13.55;2.17;;;;;;;;;;5030760;28;20053;-82
2022/06/09 05:01:31;;;;;;;14.05;1.88;;;;;;;;;;5031971;28;20624;-82
2022/06/09 05:04:00;;;;;;;11.73;2.08;;;;;;;;;;5031400;28;20516;-82
2022/06/09 05:06:26;;;;;;;15.57;2.40;;;;;;;;;;5033662;28;20040;-82
2022/06/09 05:08:53;;;;;;;14.73;1.95;;;;;;;;;;5031726;28;20071;-82
2022/06/09 05:11:19;;;;;;;13.43;2.00;;;;;;;;;;5031933;28;20110;-82
2022/06/09 05:13:46;;;;;;;15.52;2.35;;;;;;;;;;5031730;28;20513;-83
2022/06/09 05:16:12;;;;;;;15.18;2.20;;;;;;;;;;5031351;28;20071;-82
2022/06/09 05:18:37;;;;;;;12.88;2.13;;;;;;;;;;5031301;28;20091;-82
2022/06/09 05:21:04;;;;;;;13.15;2.03;;;;;;;;;;5031680;28;20592;-80
2022/06/09 05:23:30;;;;;;;15.48;2.03;;;;;;;;;;5031396;28;20041;-78
2022/06/09 05:25:57;;;;;;;13.15;2.00;;;;;;;;;;5031712;28;20037;-80
2022/06/09 05:28:25;;;;;;;13.10;1.95;;;;;;;;;;5031647;28;20021;-80
2022/06/09 05:30:50;;;;;;;9.80;1.98;;;;;;;;;;5031530;28;20014;-84
2022/06/09 05:33:16;;;;;;;13.95;2.47;;;;;;;;;;5031091;28;20536;-82
2022/06/09 05:35:42;;;;;;;11.23;2.15;;;;;;;;;;5029672;28;20579;-78
2022/06/09 05:46:44;;;;;;;13.02;2.00;;;;;;;;;;5030189;28;20040;-83
2022/06/09 05:49:10;;;;;;;15.55;2.00;;;;;;;;;;5031007;28;20025;-83
2022/06/09 05:51:36;;;;;;;12.10;2.55;;;;;;;;;;5030854;28;20036;-84
2022/06/09 05:54:02;;;;;;;14.93;2.20;;;;;;;;;;5030600;28;20393;-83
2022/06/09 05:56:28;;;;;;;12.55;2.03;;;;;;;;;;5030899;28;20039;-83
2022/06/09 05:58:53;;;;;;;13.10;1.98;;;;;;;;;;5030571;28;20401;-82
2022/06/09 06:01:18;;;;;;;13.55;2.20;;;;;;;;;;5033098;28;20627;-82
2022/06/09 06:03:44;;;;;;;16.73;2.45;;;;;;;;;;5030623;28;20030;-80
2022/06/09 06:08:54;;;;;;;13.93;1.98;;;;;;;;;;5030552;28;20061;-83
2022/06/09 06:11:20;;;;;;;12.68;2.40;;;;;;;;;;5030309;28;20021;-82
2022/06/09 06:13:46;;;;;;;19.35;2.47;;;;;;;;;;5031867;28;20099;-83
2022/06/09 06:16:12;;;;;;;11.93;2.05;;;;;;;;;;5030386;28;20037;-82
2022/06/09 06:18:38;;;;;;;12.35;2.00;;;;;;;;;;5030417;28;20087;-78
2022/06/09 06:21:03;;;;;;;15.40;2.20;;;;;;;;;;5030240;28;20401;-77
2022/06/09 06:23:29;;;;;;;15.05;2.20;;;;;;;;;;5030077;28;20480;-82
2022/06/09 06:25:56;;;;;;;12.95;2.13;;;;;;;;;;5030250;28;20037;-83
2022/06/09 06:28:22;;;;;;;17.50;2.50;;;;;;;;;;5029919;28;20025;-83
2022/06/09 06:30:49;;;;;;;12.77;2.13;;;;;;;;;;5030493;28;20045;-80
2022/06/09 06:33:15;;;;;;;13.90;1.98;;;;;;;;;;5030165;28;20112;-81
2022/06/09 06:35:40;;;;;;;12.02;2.45;;;;;;;;;;5029851;28;20032;-83
2022/06/09 06:38:06;;;;;;;11.15;2.00;;;;;;;;;;5030400;28;20025;-79
2022/06/09 06:40:31;;;;;;;13.45;1.90;;;;;;;;;;5031900;28;20033;-82
2022/06/09 06:42:57;;;;;;;10.65;1.83;;;;;;;;;;5030320;28;20100;-82
2022/06/09 06:45:23;;;;;;;9.15;1.90;;;;;;;;;;5029664;28;20033;-81
2022/06/09 06:47:48;;;;;;;10.45;2.17;;;;;;;;;;5028697;28;20413;-79
2022/06/09 06:50:14;;;;;;;11.43;2.03;;;;;;;;;;5030700;28;20036;-75
2022/06/09 06:52:40;;;;;;;14.88;2.17;;;;;;;;;;5033446;28;20025;-77
2022/06/09 06:55:08;;;;;;;13.70;2.08;;;;;;;;;;5036974;28;20034;-76
2022/06/09 06:57:34;;;;;;;9.20;1.70;;;;;;;;;;5044888;28;20325;-75
2022/06/09 07:00:00;;;;;;;8.68;2.10;;;;;;;;;;5045024;28;20060;-78
2022/06/09 07:02:26;;;;;;;12.77;2.35;;;;;;;;;;5042761;28;20313;-82
2022/06/09 07:04:52;;;;;;;11.65;1.75;;;;;;;;;;5044197;28;20036;-80
2022/06/09 07:07:17;;;;;;;10.95;1.90;;;;;;;;;;5041817;28;20033;-78
2022/06/09 07:09:43;;;;;;;10.60;2.05;;;;;;;;;;5040387;28;20029;-79
2022/06/09 07:12:09;;;;;;;11.35;1.85;;;;;;;;;;5033817;28;20045;-73
2022/06/09 07:14:35;;;;;;;12.43;1.90;;;;;;;;;;5034041;28;20041;-74
2022/06/09 07:17:01;;;;;;;10.68;1.77;;;;;;;;;;5033643;28;20033;-72
2022/06/09 07:19:28;;;;;;;7.63;1.73;;;;;;;;;;5033526;28;20031;-73
2022/06/09 07:21:53;;;;;;;6.68;1.70;;;;;;;;;;5033972;28;20026;-72
2022/06/09 07:24:19;;;;;;;9.98;1.65;;;;;;;;;;5036935;28;20049;-73
2022/06/09 07:26:44;;;;;;;10.02;1.85;;;;;;;;;;5033686;28;20472;-71
2022/06/09 07:29:10;;;;;;;9.05;1.60;;;;;;;;;;5033619;28;20619;-72
2022/06/09 07:31:36;;;;;;;8.40;1.90;;;;;;;;;;5034177;28;20428;-72
2022/06/09 07:34:01;;;;;;;9.43;2.00;;;;;;;;;;5034183;28;20037;-73
2022/06/09 07:36:27;;;;;;;7.38;1.60;;;;;;;;;;5033033;28;20021;-69
2022/06/09 07:38:52;;;;;;;8.38;1.70;;;;;;;;;;5033113;28;20105;-75
2022/06/09 07:41:20;;;;;;;8.20;1.65;;;;;;;;;;5033480;28;20040;-74
2022/06/09 07:43:47;;;;;;;8.23;1.92;;;;;;;;;;5033204;28;20033;-73
2022/06/09 07:46:14;;;;;;;9.95;1.77;;;;;;;;;;5033269;28;20029;-74
2022/06/09 07:48:39;;;;;;;8.98;1.70;;;;;;;;;;5033412;28;20030;-72
2022/06/09 07:51:05;;;;;;;9.90;1.67;;;;;;;;;;5032792;28;20111;-73
2022/06/09 07:53:30;;;;;;;8.18;1.70;;;;;;;;;;5032490;28;20104;-71
2022/06/09 07:55:56;;;;;;;10.80;2.10;;;;;;;;;;5035245;28;20448;-72
2022/06/09 07:58:22;;;;;;;6.75;1.67;;;;;;;;;;5032586;28;20030;-75
2022/06/09 08:00:48;;;;;;;8.50;1.65;;;;;;;;;;5021791;28;20022;-73
2022/06/09 08:03:21;;;;;;;5.90;1.60;;;;;;;;;;5030095;28;20064;-75
2022/06/09 08:05:47;;;;;;;9.07;1.90;;;;;;;;;;5016954;28;20368;-77
2022/06/09 08:08:13;;;;;;;17.95;2.28;;;;;;;;;;5019706;28;20104;-72
2022/06/09 08:10:39;;;;;;;17.50;2.00;;;;;;;;;;5032853;28;20061;-77
2022/06/09 08:13:05;;;;;;;8.73;1.60;;;;;;;;;;5032385;28;20037;-80
2022/06/09 08:15:32;;;;;;;6.88;1.48;;;;;;;;;;5030939;28;20033;-81
2022/06/09 08:17:58;;;;;;;7.40;1.77;;;;;;;;;;5015892;28;20034;-78
2022/06/09 08:20:27;;;;;;;6.03;1.50;;;;;;;;;;5012876;28;20072;-80
2022/06/09 08:23:00;;;;;;;5.93;1.42;;;;;;;;;;5012787;28;20092;-80
2022/06/09 08:25:25;;;;;;;7.43;1.35;;;;;;;;;;5012228;28;20512;-78
2022/06/09 08:27:51;;;;;;;10.63;1.83;;;;;;;;;;5012863;28;20014;-78
2022/06/09 08:30:17;;;;;;;8.65;1.40;;;;;;;;;;5012302;28;20470;-75
2022/06/09 08:32:42;;;;;;;6.63;1.25;;;;;;;;;;5012174;28;20066;-73
2022/06/09 08:35:14;;;;;;;7.32;1.35;;;;;;;;;;5028026;28;20033;-73
2022/06/09 08:37:39;;;;;;;10.70;1.35;;;;;;;;;;5030144;28;20026;-72
2022/06/09 08:40:06;;;;;;;6.15;1.30;;;;;;;;;;5030932;28;20044;-74
2022/06/09 08:42:39;;;;;;;5.93;1.38;;;;;;;;;;5032245;28;20543;-74
2022/06/09 08:45:09;;;;;;;5.82;1.58;;;;;;;;;;5033189;28;20079;-74
2022/06/09 08:47:52;;;;;;;;;;;;;;;;;;5033025;28;20092;-72
2022/06/09 08:50:26;;;;;;;7.82;1.20;;;;;;;;;;5029379;28;19920;-72
2022/06/09 08:53:15;;;;;;;7.13;1.50;;;;;;;;;;5037842;28;20092;-73
2022/06/09 08:55:51;;;;;;;6.53;1.17;;;;;;;;;;5019570;28;20033;-74
2022/06/09 08:58:31;;;;;;;7.60;1.27;;;;;;;;;;5027288;28;20033;-74
2022/06/09 09:01:22;;;;;;;9.27;1.45;;;;;;;;;;5038630;28;20025;-73
2022/06/09 09:04:05;;;;;;;8.25;1.60;;;;;;;;;;5032880;28;20646;-73
2022/06/09 09:06:40;;;;;;;8.80;1.50;;;;;;;;;;5032647;28;20017;-73
2022/06/09 09:09:16;;;;;;;6.95;1.20;;;;;;;;;;5033750;28;20056;-73
2022/06/09 09:11:51;;;;;;;8.35;1.02;;;;;;;;;;5034395;28;20121;-73
2022/06/09 09:14:21;;;;;;;5.72;1.10;;;;;;;;;;5030275;28;20491;-74
2022/06/09 09:17:01;;;;;;;12.65;1.73;;;;;;;;;;5031363;28;20034;-78
2022/06/09 09:19:37;;;;;;;7.45;1.40;;;;;;;;;;5032662;28;20036;-75
2022/06/09 09:22:12;;;;;;;7.15;1.20;;;;;;;;;;5031596;28;20508;-74
2022/06/09 09:24:40;;;;;;;5.40;1.10;;;;;;;;;;5031912;28;20494;-73
2022/06/09 09:27:17;;;;;;;7.70;1.45;;;;;;;;;;5032042;28;20091;-76
2022/06/09 09:30:28;;;;;;;8.23;1.20;;;;;;;;;;5031481;28;20025;-75
2022/06/09 09:32:55;;;;;;;5.60;1.17;;;;;;;;;;5015308;28;20042;-77
2022/06/09 09:35:23;;;;;;;7.80;1.20;;;;;;;;;;5030969;28;20033;-76
2022/06/09 09:37:54;;;;;;;9.40;1.20;;;;;;;;;;5030718;28;20037;-75
2022/06/09 09:40:37;;;;;;;6.45;1.25;;;;;;;;;;5030950;28;20113;-76
2022/06/09 09:43:08;;;;;;;6.13;1.20;;;;;;;;;;5031000;28;20025;-78
2022/06/09 09:45:46;;;;;;;11.00;1.60;;;;;;;;;;5030963;28;20481;-79
2022/06/09 09:48:35;;;;;;;6.43;1.13;;;;;;;;;;5031848;28;20030;-77
2022/06/09 09:51:12;;;;;;;5.70;1.13;;;;;;;;;;5025912;28;20044;-77
2022/06/09 09:53:46;;;;;;;5.50;1.10;;;;;;;;;;5031838;28;20037;-73
2022/06/09 09:56:17;;;;;;;8.27;1.15;;;;;;;;;;5031421;28;20076;-78
2022/06/09 09:58:49;;;;;;;7.57;1.20;;;;;;;;;;5031989;28;20025;-76
2022/06/09 10:01:14;;;;;;;5.85;1.20;;;;;;;;;;5031920;28;20123;-78
2022/06/09 10:09:46;;;;;;;6.57;1.17;;;;;;;;;;5032054;28;20044;-76
2022/06/09 10:12:23;;;;;;;6.82;1.30;;;;;;;;;;5036672;28;20477;-74
2022/06/09 10:15:07;;;;;;;6.53;1.23;;;;;;;;;;5043507;28;20030;-73
2022/06/09 10:17:55;;;;;;;5.35;1.20;;;;;;;;;;5045047;28;20029;-74
2022/06/09 10:20:27;;;;;;;6.18;1.23;;;;;;;;;;5043983;28;20061;-77
2022/06/09 10:23:17;;;;;;;8.98;1.40;;;;;;;;;;5044259;28;20068;-73
2022/06/09 10:26:06;;;;;;;6.25;1.50;;;;;;;;;;5041901;28;20133;-75
2022/06/09 10:28:57;;;;;;;4.78;1.00;;;;;;;;;;5041807;28;20053;-73
2022/06/09 10:32:00;;;;;;;7.07;1.20;;;;;;;;;;5042902;28;20029;-74
2022/06/09 10:34:34;;;;;;;7.68;1.20;;;;;;;;;;5037208;28;20029;-77
2022/06/09 10:37:07;;;;;;;6.57;1.50;;;;;;;;;;5030217;28;20030;-79
2022/06/09 10:39:52;;;;;;;5.85;1.02;;;;;;;;;;5030803;28;20029;-75
2022/06/09 10:42:20;;;;;;;4.70;0.98;;;;;;;;;;5030212;28;20116;-76
2022/06/09 10:44:56;;;;;;;5.15;1.10;;;;;;;;;;5030697;28;20028;-79
2022/06/09 10:56:41;;;;;;;5.47;1.10;;;;;;;;;;5030220;28;20498;-77
2022/06/09 10:59:47;;;;;;;5.25;0.90;;;;;;;;;;5030332;28;20033;-73
2022/06/09 11:02:21;;;;;;;6.50;1.00;;;;;;;;;;5029699;28;20034;-77
2022/06/09 11:04:48;;;;;;;5.90;1.10;;;;;;;;;;5030038;28;20097;-78
2022/06/09 11:07:26;;;;;;;3.85;1.00;;;;;;;;;;5029823;28;20117;-78
2022/06/09 11:10:13;;;;;;;8.05;1.20;;;;;;;;;;5030333;28;20113;-77
2022/06/09 11:12:48;;;;;;;3.50;0.80;;;;;;;;;;5030183;28;20021;-78
2022/06/09 11:15:34;;;;;;;4.32;1.20;;;;;;;;;;5030086;28;20370;-76
2022/06/09 11:18:30;;;;;;;5.90;1.17;;;;;;;;;;5030203;28;20112;-78
2022/06/09 11:21:17;;;;;;;5.10;1.00;;;;;;;;;;5030033;28;20029;-75
2022/06/09 11:23:54;;;;;;;5.03;1.10;;;;;;;;;;5029677;28;20045;-76
2022/06/09 11:26:25;;;;;;;7.45;1.23;;;;;;;;;;5029823;28;20030;-75
2022/06/09 11:28:51;;;;;;;8.07;1.10;;;;;;;;;;5029765;28;20029;-75
2022/06/09 11:31:28;;;;;;;6.93;1.15;;;;;;;;;;5029948;28;20085;-77
2022/06/09 11:33:56;;;;;;;5.13;1.10;;;;;;;;;;5030014;28;20033;-75
2022/06/09 11:36:36;;;;;;;9.48;1.33;;;;;;;;;;5029610;28;20026;-79
2022/06/09 11:39:23;;;;;;;7.05;1.17;;;;;;;;;;5029828;28;20029;-76
2022/06/09 11:42:29;;;;;;;4.38;1.05;;;;;;;;;;5030973;28;20032;-75
2022/06/09 11:44:59;;;;;;;4.32;1.23;;;;;;;;;;5012504;28;20042;-76
2022/06/09 11:47:30;;;;;;;6.82;1.20;;;;;;;;;;5033416;28;20032;-78
2022/06/09 11:50:00;;;;;;;7.43;1.20;;;;;;;;;;5033449;28;20116;-76
2022/06/09 11:52:40;;;;;;;4.47;1.10;;;;;;;;;;5032979;28;20146;-78
2022/06/09 11:55:27;;;;;;;6.50;1.10;;;;;;;;;;5033217;28;20094;-76
2022/06/09 11:57:53;;;;;;;8.32;1.20;;;;;;;;;;5032842;28;20116;-73
2022/06/09 12:00:18;;;;;;;6.53;0.98;;;;;;;;;;5032957;28;20107;-75
2022/06/09 12:03:14;;;;;;;5.72;1.20;;;;;;;;;;5028775;28;20492;-76
2022/06/09 12:06:12;;;;;;;10.32;1.17;;;;;;;;;;5039128;28;20108;-76
2022/06/09 12:09:06;;;;;;;7.20;1.10;;;;;;;;;;5011603;28;20080;-74
2022/06/09 12:11:49;;;;;;;5.28;1.30;;;;;;;;;;5037581;28;20056;-75
2022/06/09 12:14:21;;;;;;;5.22;1.13;;;;;;;;;;5019492;28;20436;-75
2022/06/09 12:17:16;;;;;;;6.75;1.20;;;;;;;;;;5031940;28;20037;-72
2022/06/09 12:19:51;;;;;;;3.58;1.10;;;;;;;;;;5030295;28;20037;-74
2022/06/09 12:22:42;;;;;;;4.72;1.25;;;;;;;;;;5031011;28;20079;-76
2022/06/09 12:25:08;;;;;;;18.98;1.50;;;;;;;;;;5032678;28;20040;-73
2022/06/09 12:27:38;;;;;;;6.20;1.42;;;;;;;;;;5032294;28;20030;-75
2022/06/09 12:30:21;;;;;;;7.00;1.00;;;;;;;;;;5032345;28;20544;-75
2022/06/09 12:32:50;;;;;;;5.25;1.00;;;;;;;;;;5032250;28;20492;-78
2022/06/09 12:35:26;;;;;;;4.68;1.10;;;;;;;;;;5032472;28;20053;-80
2022/06/09 12:38:05;;;;;;;6.53;1.10;;;;;;;;;;5033031;28;20033;-75
2022/06/09 12:40:48;;;;;;;8.68;1.20;;;;;;;;;;5032867;28;20044;-79
2022/06/09 12:43:26;;;;;;;5.78;1.25;;;;;;;;;;5032898;28;20394;-76
2022/06/09 12:46:01;;;;;;;8.40;1.33;;;;;;;;;;5044854;28;20036;-74
2022/06/09 12:48:29;;;;;;;4.43;0.93;;;;;;;;;;5026667;28;20493;-75
2022/06/09 12:50:55;;;;;;;4.15;0.93;;;;;;;;;;5031581;28;20021;-75
2022/06/09 12:53:35;;;;;;;4.65;1.10;;;;;;;;;;5031752;28;20232;-76
2022/06/09 12:56:06;;;;;;;5.32;1.10;;;;;;;;;;5021589;28;20460;-77
2022/06/09 12:58:37;;;;;;;5.47;1.08;;;;;;;;;;5031770;28;20487;-72
2022/06/09 13:01:05;;;;;;;;;;;;;;;;;;5032003;28;20032;-74
2022/06/09 13:03:40;;;;;;;9.23;1.33;;;;;;;;;;5031447;28;19913;-74
2022/06/09 13:06:23;;;;;;;3.67;1.00;;;;;;;;;;5031718;28;20060;-74
2022/06/09 13:08:56;;;;;;;5.55;1.13;;;;;;;;;;5031290;28;20037;-73
2022/06/09 13:14:31;;;;;;;8.43;1.30;;;;;;;;;;5031776;28;20047;-72
2022/06/09 13:17:06;;;;;;;6.28;1.30;;;;;;;;;;5031744;28;20509;-75
2022/06/09 13:19:33;;;;;;;4.05;1.25;;;;;;;;;;5031071;28;20076;-73
2022/06/09 13:22:02;;;;;;;3.72;1.05;;;;;;;;;;5031025;28;20029;-71
2022/06/09 13:24:34;;;;;;;4.70;1.10;;;;;;;;;;5030906;28;20083;-73
2022/06/09 13:27:01;;;;;;;6.05;1.17;;;;;;;;;;5031016;28;20112;-74
2022/06/09 13:29:31;;;;;;;6.30;1.27;;;;;;;;;;5031074;28;20064;-71
2022/06/09 13:32:08;;;;;;;2.63;0.80;;;;;;;;;;5031316;28;20025;-71
2022/06/09 13:34:36;;;;;;;4.22;0.93;;;;;;;;;;5031054;28;20025;-74
2022/06/09 13:37:16;;;;;;;4.68;1.27;;;;;;;;;;5029637;28;20450;-71
2022/06/09 13:40:21;;;;;;;4.75;1.10;;;;;;;;;;5030829;28;20594;-73
2022/06/09 13:42:52;;;;;;;4.80;1.10;;;;;;;;;;5030572;28;20036;-71
2022/06/09 13:45:26;;;;;;;4.28;1.10;;;;;;;;;;5030843;28;20080;-72
2022/06/09 13:48:12;;;;;;;3.95;1.00;;;;;;;;;;5031121;28;20030;-73
2022/06/09 13:50:41;;;;;;;5.65;1.20;;;;;;;;;;5031024;28;20030;-74
2022/06/09 13:53:25;;;;;;;11.43;1.15;;;;;;;;;;5031015;28;20025;-73
2022/06/09 13:55:50;;;;;;;7.00;1.00;;;;;;;;;;5030756;28;20021;-72
2022/06/09 13:58:16;;;;;;;7.78;1.20;;;;;;;;;;5030322;28;20702;-70
2022/06/09 14:00:53;;;;;;;5.93;1.40;;;;;;;;;;5030737;28;20083;-70
2022/06/09 14:03:34;;;;;;;6.10;1.10;;;;;;;;;;5030442;28;20515;-72
2022/06/09 14:06:07;;;;;;;3.25;0.90;;;;;;;;;;5030391;28;20056;-72
2022/06/09 14:08:37;;;;;;;5.93;1.15;;;;;;;;;;5029090;28;20076;-71
2022/06/09 14:11:03;;;;;;;;;;;;;;;;;;5031144;28;20025;-74
2022/06/09 14:13:28;;;;;;;6.13;1.17;;;;;;;;;;5030398;28;19940;-71
2022/06/09 14:15:54;;;;;;;5.65;1.13;;;;;;;;;;5030492;28;20030;-71
2022/06/09 14:18:26;;;;;;;7.63;1.30;;;;;;;;;;5029977;28;20075;-71
2022/06/09 14:20:52;;;;;;;6.03;1.02;;;;;;;;;;5030273;28;20547;-72
2022/06/09 14:23:24;;;;;;;6.13;1.40;;;;;;;;;;5030050;28;20057;-72
2022/06/09 14:25:57;;;;;;;5.45;1.13;;;;;;;;;;5030589;28;20033;-69
2022/06/09 14:28:24;;;;;;;4.38;1.05;;;;;;;;;;5030183;28;20025;-71
2022/06/09 14:30:50;;;;;;;6.05;1.00;;;;;;;;;;5030263;28;20026;-75
2022/06/09 14:33:16;;;;;;;5.07;0.93;;;;;;;;;;5030352;28;20392;-74
2022/06/09 14:35:42;;;;;;;4.40;1.08;;;;;;;;;;5029739;28;20029;-73
2022/06/09 14:38:11;;;;;;;4.18;1.02;;;;;;;;;;5030270;28;20056;-75
2022/06/09 14:40:42;;;;;;;3.65;1.10;;;;;;;;;;5030203;28;20069;-76
2022/06/09 14:43:09;;;;;;;5.65;1.13;;;;;;;;;;5030382;28;20025;-75
2022/06/09 14:45:35;;;;;;;5.50;1.10;;;;;;;;;;5028969;28;20057;-75
2022/06/09 14:48:01;;;;;;;6.30;1.05;;;;;;;;;;5030150;28;20060;-74
2022/06/09 14:50:27;;;;;;;4.00;0.90;;;;;;;;;;5031539;28;20217;-74
2022/06/09 14:52:52;;;;;;;5.13;0.93;;;;;;;;;;5034247;28;20029;-74
2022/06/09 14:55:18;;;;;;;9.05;1.27;;;;;;;;;;5029753;28;20022;-78
2022/06/09 14:57:44;;;;;;;6.95;1.20;;;;;;;;;;5029370;28;20064;-73
2022/06/09 15:00:26;;;;;;;8.40;1.10;;;;;;;;;;5034585;28;20397;-74
2022/06/09 15:02:52;;;;;;;5.05;1.13;;;;;;;;;;5029775;28;20390;-72
2022/06/09 15:05:19;;;;;;;5.00;1.25;;;;;;;;;;5037993;28;20100;-71
2022/06/09 15:07:46;;;;;;;5.30;1.00;;;;;;;;;;5035386;28;20603;-72
2022/06/09 15:10:21;;;;;;;7.90;1.20;;;;;;;;;;5031388;28;20037;-69
2022/06/09 15:12:47;;;;;;;7.47;1.20;;;;;;;;;;5029837;28;20100;-71
2022/06/09 15:15:13;;;;;;;7.00;0.90;;;;;;;;;;5033120;28;20124;-73
2022/06/09 15:17:40;;;;;;;6.38;1.20;;;;;;;;;;5032466;28;20108;-71
2022/06/09 15:20:08;;;;;;;7.57;1.00;;;;;;;;;;5034211;28;20026;-73
2022/06/09 15:22:33;;;;;;;5.22;0.90;;;;;;;;;;5033332;28;20639;-75
2022/06/09 15:24:59;;;;;;;5.97;1.10;;;;;;;;;;5033200;28;20025;-72
2022/06/09 15:27:24;;;;;;;6.05;1.00;;;;;;;;;;5033348;28;20025;-72
2022/06/09 15:29:50;;;;;;;6.32;1.10;;;;;;;;;;5032448;28;20496;-77